Time;durP1;ratioP1;P1;durP2;ratioP2;P2;SDS_P1;SDS_P2;PMS_P1;PMS_P2;Temp;Humidity;BMP_temperature;BMP_pressure;BME280_temperature;BME280_humidity;BME280_pressure;Samples;Min_cycle;Max_cycle;Signal;HPM_P1;HPM_P2
2022/09/28 00:01:21;;;;;;;1.60;1.50;;;;;7.50;94782.00;;;;8330538;28;20221;-73
2022/09/28 00:05:26;;;;;;;1.93;1.70;;;;;7.60;94790.00;;;;8330307;28;20307;-73
2022/09/28 00:09:29;;;;;;;1.80;1.70;;;;;7.70;94786.00;;;;8330309;28;20275;-73
2022/09/28 00:13:32;;;;;;;2.83;1.63;;;;;7.70;94767.00;;;;8297463;28;20226;-74
2022/09/28 00:17:37;;;;;;;1.80;1.70;;;;;7.80;94771.00;;;;8297272;28;20291;-73
2022/09/28 00:21:42;;;;;;;2.93;1.53;;;;;7.80;94763.00;;;;8297203;28;20218;-73
2022/09/28 00:25:45;;;;;;;1.77;1.40;;;;;7.80;94754.00;;;;8296989;28;20300;-73
2022/09/28 00:29:48;;;;;;;2.53;1.40;;;;;7.90;94754.00;;;;8297264;28;20283;-73
2022/09/28 00:33:55;;;;;;;1.80;1.70;;;;;7.90;94743.00;;;;8296491;28;20233;-73
2022/09/28 00:37:59;;;;;;;1.30;1.30;;;;;7.90;94738.00;;;;8296584;28;20280;-73
2022/09/28 00:42:04;;;;;;;7.33;5.00;;;;;8.00;94744.00;;;;8329952;28;20320;-74
2022/09/28 00:46:14;;;;;;;4.03;1.60;;;;;8.10;94740.00;;;;8328765;28;20658;-73
2022/09/28 00:50:24;;;;;;;5.23;1.80;;;;;8.10;94737.00;;;;8329230;28;20671;-73
2022/09/28 00:54:27;;;;;;;4.50;1.60;;;;;8.20;94727.00;;;;8329685;28;20662;-73
2022/09/28 00:58:34;;;;;;;3.53;1.47;;;;;8.20;94721.00;;;;8328734;28;20279;-73
2022/09/28 01:02:37;;;;;;;2.45;1.40;;;;;8.30;94717.00;;;;8295435;28;20252;-73
2022/09/28 01:06:44;;;;;;;1.90;1.80;;;;;8.30;94714.00;;;;8295926;28;20271;-73
2022/09/28 01:10:48;;;;;;;4.70;2.10;;;;;8.30;94699.00;;;;8295456;28;20217;-74
2022/09/28 01:14:52;;;;;;;3.67;2.03;;;;;8.30;94700.00;;;;8295360;28;20221;-74
2022/09/28 01:19:07;;;;;;;2.50;1.90;;;;;8.30;94702.00;;;;8295393;28;20583;-74
2022/09/28 01:23:51;;;;;;;5.57;2.20;;;;;8.30;94690.00;;;;8327584;28;20267;-76
2022/09/28 01:28:00;;;;;;;4.13;2.17;;;;;8.30;94671.00;;;;8295141;28;20253;-77
2022/09/28 01:32:24;;;;;;;6.05;2.50;;;;;8.30;94667.00;;;;8294617;28;20224;-76
2022/09/28 01:36:33;;;;;;;3.60;2.43;;;;;8.40;94657.00;;;;8295432;28;20223;-77
2022/09/28 01:40:37;;;;;;;8.33;2.50;;;;;8.30;94656.00;;;;8299208;28;20218;-71
2022/09/28 01:44:45;;;;;;;5.90;3.10;;;;;8.40;94642.00;;;;8295933;28;20221;-71
2022/09/28 01:48:55;;;;;;;6.88;2.63;;;;;8.40;94642.00;;;;8296460;28;20245;-71
2022/09/28 01:53:04;;;;;;;5.60;2.90;;;;;8.40;94642.00;;;;8295780;28;20671;-71
2022/09/28 01:57:14;;;;;;;6.78;3.47;;;;;8.50;94628.00;;;;8294401;28;20278;-70
2022/09/28 02:01:23;;;;;;;7.30;4.17;;;;;8.50;94622.00;;;;8294875;28;20672;-72
2022/09/28 02:05:31;;;;;;;5.18;3.25;;;;;8.50;94624.00;;;;8295604;28;20241;-71
2022/09/28 02:09:39;;;;;;;7.20;4.00;;;;;8.50;94611.00;;;;8295660;28;20228;-69
2022/09/28 02:13:46;;;;;;;5.55;3.58;;;;;8.60;94589.00;;;;8295492;28;20218;-69
2022/09/28 02:17:51;;;;;;;7.80;3.73;;;;;8.60;94574.00;;;;8295688;28;20221;-69
2022/09/28 02:21:59;;;;;;;5.70;4.13;;;;;8.60;94571.00;;;;8295541;28;20226;-69
2022/09/28 02:26:06;;;;;;;6.80;4.37;;;;;8.60;94569.00;;;;8295166;28;20229;-69
2022/09/28 02:30:11;;;;;;;7.23;4.70;;;;;8.60;94563.00;;;;8298524;28;20225;-68
2022/09/28 02:34:15;;;;;;;9.10;4.43;;;;;8.60;94550.00;;;;8297794;28;20717;-68
2022/09/28 02:38:18;;;;;;;9.67;4.40;;;;;8.60;94542.00;;;;8301716;28;20229;-68
2022/09/28 02:42:26;;;;;;;11.90;4.37;;;;;8.70;94543.00;;;;8300873;28;20230;-68
2022/09/28 02:46:37;;;;;;;9.93;4.67;;;;;8.70;94534.00;;;;8301798;28;20525;-69
2022/09/28 02:50:49;;;;;;;6.60;4.47;;;;;8.70;94529.00;;;;8301197;28;20547;-70
2022/09/28 02:55:18;;;;;;;10.93;4.60;;;;;8.70;94519.00;;;;8301313;28;20218;-71
2022/09/28 02:59:43;;;;;;;10.33;5.27;;;;;8.70;94529.00;;;;8333902;28;20639;-71
2022/09/28 03:03:50;;;;;;;13.50;5.30;;;;;8.70;94517.00;;;;8370694;23;20232;-72
2022/09/28 03:07:59;;;;;;;14.07;6.60;;;;;8.70;94502.00;;;;8337161;28;20225;-70
2022/09/28 03:12:08;;;;;;;13.90;6.57;;;;;8.70;94494.00;;;;8349386;28;20235;-73
2022/09/28 03:16:13;;;;;;;13.40;6.23;;;;;8.80;94475.00;;;;8334527;28;20232;-73
2022/09/28 03:20:17;;;;;;;11.63;6.10;;;;;8.80;94473.00;;;;8321437;28;20303;-72
2022/09/28 03:24:21;;;;;;;11.95;5.72;;;;;8.80;94472.00;;;;8354754;28;20636;-72
2022/09/28 03:28:25;;;;;;;10.27;6.27;;;;;8.90;94468.00;;;;8348529;28;20286;-73
2022/09/28 03:32:28;;;;;;;9.45;5.55;;;;;8.90;94471.00;;;;8339700;28;20669;-75
2022/09/28 03:36:31;;;;;;;9.03;5.70;;;;;8.90;94467.00;;;;8353962;28;20251;-75
2022/09/28 03:40:36;;;;;;;8.37;4.93;;;;;8.90;94459.00;;;;8352569;28;20574;-74
2022/09/28 03:44:39;;;;;;;10.52;5.43;;;;;8.90;94450.00;;;;8351336;28;20232;-75
2022/09/28 03:48:42;;;;;;;9.25;4.70;;;;;8.90;94427.00;;;;8351418;28;20291;-74
2022/09/28 03:52:45;;;;;;;7.93;5.20;;;;;8.90;94416.00;;;;8361458;28;20707;-73
2022/09/28 03:56:50;;;;;;;10.47;5.73;;;;;9.00;94421.00;;;;8357398;28;20224;-73
2022/09/28 04:00:53;;;;;;;7.90;4.78;;;;;9.00;94411.00;;;;8351538;28;20251;-72
2022/09/28 04:04:57;;;;;;;7.73;4.87;;;;;9.10;94404.00;;;;8344584;28;20225;-71
2022/09/28 04:09:00;;;;;;;9.68;4.60;;;;;9.10;94387.00;;;;8349811;28;20696;-72
2022/09/28 04:13:04;;;;;;;8.27;4.40;;;;;9.10;94387.00;;;;8335691;28;20233;-70
2022/09/28 04:17:07;;;;;;;8.60;4.67;;;;;9.20;94385.00;;;;8357260;28;20228;-70
2022/09/28 04:21:12;;;;;;;9.23;4.40;;;;;9.20;94380.00;;;;8361636;28;20814;-70
2022/09/28 04:25:16;;;;;;;7.23;4.20;;;;;9.20;94372.00;;;;8340847;28;20717;-72
2022/09/28 04:29:20;;;;;;;7.43;4.20;;;;;9.20;94367.00;;;;8339328;28;20593;-71
2022/09/28 04:33:24;;;;;;;8.77;4.40;;;;;9.20;94358.00;;;;8366851;28;20228;-73
2022/09/28 04:37:30;;;;;;;6.03;4.43;;;;;9.20;94355.00;;;;8360794;28;20258;-72
2022/09/28 04:41:33;;;;;;;9.60;4.70;;;;;9.20;94350.00;;;;8366283;28;20576;-72
2022/09/28 04:45:37;;;;;;;7.50;4.75;;;;;9.30;94346.00;;;;8344194;28;20243;-73
2022/09/28 04:49:41;;;;;;;6.87;4.73;;;;;9.30;94341.00;;;;8351238;28;20255;-73
2022/09/28 04:53:44;;;;;;;8.83;4.57;;;;;9.30;94337.00;;;;8365122;28;20234;-71
2022/09/28 04:57:47;;;;;;;8.27;5.03;;;;;9.30;94327.00;;;;8352683;28;20220;-71
2022/09/28 05:01:52;;;;;;;8.90;4.93;;;;;9.30;94325.00;;;;8358164;28;20237;-72
2022/09/28 05:05:56;;;;;;;9.23;4.60;;;;;9.30;94322.00;;;;8357107;28;20235;-72
2022/09/28 05:10:00;;;;;;;10.10;5.20;;;;;9.40;94320.00;;;;8352531;28;20235;-72
2022/09/28 05:14:04;;;;;;;7.93;4.37;;;;;9.40;94313.00;;;;8357973;28;20255;-72
2022/09/28 05:18:09;;;;;;;8.37;4.87;;;;;9.40;94322.00;;;;8355069;28;20228;-71
2022/09/28 05:22:13;;;;;;;8.23;4.83;;;;;9.40;94315.00;;;;8349305;28;20239;-71
2022/09/28 05:26:16;;;;;;;10.87;4.97;;;;;9.50;94320.00;;;;8353030;28;20230;-70
2022/09/28 05:30:20;;;;;;;6.70;4.70;;;;;9.60;94319.00;;;;8347063;28;20585;-72
2022/09/28 05:34:25;;;;;;;7.17;4.77;;;;;9.60;94311.00;;;;8348782;28;20688;-71
2022/09/28 05:38:28;;;;;;;8.07;4.83;;;;;9.70;94315.00;;;;8363104;28;20238;-71
2022/09/28 05:42:32;;;;;;;9.45;4.63;;;;;9.90;94314.00;;;;8357967;28;20234;-71
2022/09/28 05:46:35;;;;;;;9.60;5.07;;;;;9.90;94306.00;;;;8350269;28;20228;-73
2022/09/28 05:50:39;;;;;;;9.35;3.90;;;;;9.90;94303.00;;;;8352353;28;20363;-71
2022/09/28 05:54:42;;;;;;;7.22;3.75;;;;;9.90;94306.00;;;;8350199;28;20577;-71
2022/09/28 05:58:45;;;;;;;7.17;3.90;;;;;10.00;94307.00;;;;8346239;28;20228;-71
2022/09/28 06:02:59;;;;;;;9.13;3.38;;;;;10.00;94298.00;;;;8350813;28;20745;-72
2022/09/28 06:07:04;;;;;;;5.40;3.57;;;;;10.00;94289.00;;;;8347899;28;20217;-72
2022/09/28 06:11:08;;;;;;;8.27;2.95;;;;;10.10;94297.00;;;;8356648;28;20621;-74
2022/09/28 06:15:12;;;;;;;6.47;3.13;;;;;10.10;94300.00;;;;8348498;28;20243;-69
2022/09/28 06:19:15;;;;;;;8.88;2.97;;;;;10.20;94296.00;;;;8347652;28;20282;-71
2022/09/28 06:23:19;;;;;;;5.43;2.90;;;;;10.20;94295.00;;;;8365293;28;20243;-70
2022/09/28 06:27:22;;;;;;;4.32;2.80;;;;;10.20;94290.00;;;;8345171;28;20220;-73
2022/09/28 06:31:28;;;;;;;9.48;2.97;;;;;10.30;94291.00;;;;8349726;28;20258;-71
2022/09/28 06:35:32;;;;;;;3.53;3.00;;;;;10.30;94289.00;;;;8349909;28;20274;-70
2022/09/28 06:39:37;;;;;;;4.20;2.50;;;;;10.30;94294.00;;;;8355598;28;20799;-72
2022/09/28 06:43:40;;;;;;;2.70;1.70;;;;;10.30;94297.00;;;;8354291;28;20751;-70
2022/09/28 06:47:43;;;;;;;7.00;2.28;;;;;10.30;94296.00;;;;8351549;28;20589;-71
2022/09/28 06:51:46;;;;;;;2.58;1.95;;;;;10.30;94296.00;;;;8350643;28;20232;-70
2022/09/28 06:55:51;;;;;;;8.02;2.10;;;;;10.30;94297.00;;;;8339928;28;20228;-70
2022/09/28 06:59:54;;;;;;;3.30;1.85;;;;;10.30;94301.00;;;;8361483;28;20217;-69
2022/09/28 07:03:57;;;;;;;5.50;1.80;;;;;10.30;94307.00;;;;8340015;28;20228;-72
2022/09/28 07:08:01;;;;;;;2.17;1.70;;;;;10.40;94305.00;;;;8347809;28;20674;-69
2022/09/28 07:12:09;;;;;;;1.90;1.70;;;;;10.40;94317.00;;;;8350654;28;20966;-71
2022/09/28 07:16:12;;;;;;;4.28;2.30;;;;;10.40;94317.00;;;;8345545;28;20700;-72
2022/09/28 07:20:15;;;;;;;5.60;2.10;;;;;10.40;94318.00;;;;8339293;28;20221;-70
2022/09/28 07:24:22;;;;;;;2.88;2.60;;;;;10.40;94325.00;;;;8351255;28;20546;-72
2022/09/28 07:28:26;;;;;;;2.67;2.47;;;;;10.40;94335.00;;;;8333502;28;20221;-71
2022/09/28 07:32:30;;;;;;;5.93;3.28;;;;;10.40;94346.00;;;;8358759;28;20228;-72
2022/09/28 07:36:35;;;;;;;3.95;3.55;;;;;10.40;94355.00;;;;8376539;28;20242;-72
2022/09/28 07:45:00;;;;;;;6.00;3.30;;;;;10.60;94365.00;;;;8347181;28;20253;-72
2022/09/28 07:49:05;;;;;;;3.42;3.13;;;;;10.80;94367.00;;;;8346095;28;20228;-71
2022/09/28 07:53:14;;;;;;;4.00;2.60;;;;;10.90;94376.00;;;;8347092;28;20221;-71
2022/09/28 07:57:17;;;;;;;5.95;2.80;;;;;11.00;94383.00;;;;8348337;28;20837;-73
2022/09/28 08:01:22;;;;;;;5.90;2.60;;;;;11.10;94393.00;;;;8346075;28;20232;-73
2022/09/28 08:05:25;;;;;;;3.13;2.20;;;;;11.20;94393.00;;;;8348178;28;20251;-71
2022/09/28 08:09:29;;;;;;;3.90;1.50;;;;;11.20;94397.00;;;;8357019;28;20224;-70
2022/09/28 08:13:32;;;;;;;2.85;1.75;;;;;11.20;94392.00;;;;8349477;28;20223;-70
2022/09/28 08:17:36;;;;;;;4.32;1.55;;;;;11.10;94392.00;;;;8352798;28;20232;-70
2022/09/28 08:21:45;;;;;;;2.58;1.73;;;;;11.20;94413.00;;;;8348205;28;20278;-71
2022/09/28 08:25:49;;;;;;;2.78;1.50;;;;;11.20;94417.00;;;;8357735;28;20236;-71
2022/09/28 08:29:52;;;;;;;3.55;1.70;;;;;11.10;94417.00;;;;8346799;28;20224;-70
2022/09/28 08:33:57;;;;;;;2.38;1.70;;;;;11.00;94414.00;;;;8338624;28;20231;-73
2022/09/28 08:38:02;;;;;;;2.17;1.50;;;;;11.10;94412.00;;;;8310426;28;20233;-72
2022/09/28 08:42:22;;;;;;;2.22;1.50;;;;;11.20;94400.00;;;;8339706;28;20292;-72
2022/09/28 08:46:31;;;;;;;1.77;1.48;;;;;11.40;94427.00;;;;8350474;28;20282;-72
2022/09/28 08:50:44;;;;;;;2.53;1.60;;;;;11.50;94433.00;;;;8341308;28;20240;-72
2022/09/28 08:54:51;;;;;;;2.80;1.40;;;;;11.60;94440.00;;;;8346619;28;20221;-72
2022/09/28 08:58:58;;;;;;;2.30;1.30;;;;;11.50;94447.00;;;;8342151;28;20272;-73
2022/09/28 09:03:05;;;;;;;1.48;1.35;;;;;11.70;94451.00;;;;8344828;28;20226;-73
2022/09/28 09:07:51;;;;;;;1.33;1.13;;;;;11.60;94447.00;;;;8341003;28;20258;-73
2022/09/28 09:12:03;;;;;;;1.20;1.10;;;;;11.60;94469.00;;;;8354969;28;20288;-72
2022/09/28 09:16:15;;;;;;;2.20;1.30;;;;;11.70;94470.00;;;;8349391;28;20633;-72
2022/09/28 09:20:29;;;;;;;2.70;1.10;;;;;11.90;94490.00;;;;8339603;28;20367;-73
2022/09/28 09:24:42;;;;;;;5.25;1.90;;;;;11.90;94494.00;;;;8369249;28;20239;-74
2022/09/28 09:29:12;;;;;;;2.65;1.40;;;;;11.70;94488.00;;;;8344992;28;20299;-76
2022/09/28 09:33:38;;;;;;;1.70;1.35;;;;;11.70;94485.00;;;;8328405;28;20666;-75
2022/09/28 09:38:06;;;;;;;1.63;1.50;;;;;11.70;94475.00;;;;8347067;28;20244;-73
2022/09/28 09:42:25;;;;;;;3.30;2.60;;;;;11.70;94484.00;;;;8342518;28;20227;-73
2022/09/28 09:46:35;;;;;;;3.78;1.77;;;;;12.20;94477.00;;;;8318666;28;20228;-73
2022/09/28 09:50:44;;;;;;;3.95;1.85;;;;;12.80;94489.00;;;;8327770;28;20239;-74
2022/09/28 09:54:51;;;;;;;2.72;1.70;;;;;13.00;94480.00;;;;8345833;28;20320;-75
2022/09/28 09:59:01;;;;;;;2.15;1.48;;;;;13.30;94482.00;;;;8340848;28;20632;-72
2022/09/28 10:03:04;;;;;;;3.35;1.50;;;;;13.50;94483.00;;;;8345974;28;20718;-74
2022/09/28 10:07:15;;;;;;;2.42;1.67;;;;;13.70;94488.00;;;;8332974;28;20251;-72
2022/09/28 10:11:25;;;;;;;1.70;1.60;;;;;13.90;94483.00;;;;8341226;28;20232;-71
2022/09/28 10:15:32;;;;;;;1.80;1.40;;;;;14.10;94494.00;;;;8336826;28;20228;-72
2022/09/28 10:19:36;;;;;;;2.65;1.65;;;;;14.30;94485.00;;;;8342862;28;20274;-73
2022/09/28 10:23:41;;;;;;;3.60;1.65;;;;;14.40;94496.00;;;;8342859;28;20228;-71
2022/09/28 10:27:48;;;;;;;3.28;1.55;;;;;14.60;94497.00;;;;8345487;28;20789;-70
2022/09/28 10:31:53;;;;;;;1.58;1.58;;;;;14.60;94508.00;;;;8343098;28;20229;-73
2022/09/28 10:35:57;;;;;;;2.42;1.67;;;;;14.30;94514.00;;;;8343326;28;20247;-72
2022/09/28 10:40:00;;;;;;;3.63;1.60;;;;;14.50;94506.00;;;;8349114;28;20224;-71
2022/09/28 10:44:09;;;;;;;2.42;1.70;;;;;14.60;94512.00;;;;8347553;28;20221;-72
2022/09/28 10:48:20;;;;;;;5.90;2.25;;;;;14.90;94527.00;;;;8335766;28;20776;-72
2022/09/28 10:52:45;;;;;;;1.90;1.70;;;;;15.00;94521.00;;;;8335760;28;20238;-71
2022/09/28 10:56:49;;;;;;;2.47;1.75;;;;;14.90;94519.00;;;;8340456;28;20224;-70
2022/09/28 11:00:59;;;;;;;1.67;1.58;;;;;14.90;94527.00;;;;8351455;28;20229;-70
2022/09/28 11:05:06;;;;;;;1.83;1.50;;;;;14.80;94523.00;;;;8358257;28;20232;-72
2022/09/28 11:09:26;;;;;;;1.90;1.80;;;;;14.80;94522.00;;;;8361130;28;20258;-70
2022/09/28 11:13:41;;;;;;;2.05;1.52;;;;;14.90;94515.00;;;;8343329;28;20266;-70
2022/09/28 11:17:44;;;;;;;2.08;1.52;;;;;15.20;94519.00;;;;8352811;28;20246;-71
2022/09/28 11:21:51;;;;;;;2.13;1.92;;;;;15.30;94517.00;;;;8329120;28;20299;-70
2022/09/28 11:25:59;;;;;;;4.32;1.45;;;;;15.20;94519.00;;;;8337487;28;20243;-68
2022/09/28 11:30:03;;;;;;;3.85;2.05;;;;;15.10;94517.00;;;;8353251;28;20220;-70
2022/09/28 11:34:15;;;;;;;2.15;1.80;;;;;14.90;94508.00;;;;8366140;28;20349;-70
2022/09/28 11:38:33;;;;;;;2.58;1.90;;;;;14.80;94509.00;;;;8370692;28;20255;-70
2022/09/28 11:42:45;;;;;;;2.28;1.60;;;;;14.90;94510.00;;;;8343927;28;20267;-70
2022/09/28 11:46:58;;;;;;;1.73;1.42;;;;;15.10;94511.00;;;;8348807;28;20229;-67
2022/09/28 11:51:05;;;;;;;2.53;1.60;;;;;15.00;94503.00;;;;8340376;28;20224;-68
2022/09/28 11:55:19;;;;;;;4.10;1.77;;;;;15.10;94512.00;;;;8354444;28;20224;-68
2022/09/28 11:59:34;;;;;;;2.70;1.63;;;;;15.10;94511.00;;;;8365745;28;20622;-67
2022/09/28 12:03:57;;;;;;;2.88;1.40;;;;;15.30;94517.00;;;;8332844;28;20715;-70
2022/09/28 12:08:04;;;;;;;6.55;2.33;;;;;15.30;94536.00;;;;8354447;28;20330;-68
2022/09/28 12:12:23;;;;;;;3.13;2.58;;;;;14.40;94528.00;;;;8325010;28;20224;-69
2022/09/28 12:16:37;;;;;;;2.50;2.20;;;;;13.80;94541.00;;;;8350905;28;20236;-68
2022/09/28 12:21:10;;;;;;;3.15;2.17;;;;;13.90;94550.00;;;;8346267;28;20235;-68
2022/09/28 12:25:22;;;;;;;2.40;1.88;;;;;13.90;94538.00;;;;8337947;28;20305;-68
2022/09/28 12:29:46;;;;;;;1.60;1.50;;;;;13.80;94553.00;;;;8349320;28;20221;-67
2022/09/28 12:33:55;;;;;;;2.85;1.88;;;;;13.90;94556.00;;;;8354106;28;20220;-68
2022/09/28 12:38:30;;;;;;;2.35;1.40;;;;;14.20;94549.00;;;;8345471;28;20232;-69
2022/09/28 12:43:00;;;;;;;1.60;1.50;;;;;14.20;94557.00;;;;8346138;28;20221;-69
2022/09/28 12:47:48;;;;;;;1.20;1.20;;;;;14.20;94555.00;;;;8348847;28;20224;-68
2022/09/28 12:52:00;;;;;;;1.85;1.35;;;;;14.10;94560.00;;;;8344413;28;20215;-68
2022/09/28 12:56:05;;;;;;;1.52;1.30;;;;;14.40;94569.00;;;;8350137;28;20236;-68
2022/09/28 13:00:23;;;;;;;1.77;1.40;;;;;14.60;94557.00;;;;8336566;28;20232;-68
2022/09/28 13:05:07;;;;;;;1.85;1.30;;;;;15.00;94567.00;;;;8365346;28;20289;-68
2022/09/28 13:09:21;;;;;;;1.20;1.20;;;;;15.10;94574.00;;;;8339062;28;20290;-68
2022/09/28 13:13:43;;;;;;;1.90;1.38;;;;;15.30;94581.00;;;;8333670;28;20224;-68
2022/09/28 13:18:03;;;;;;;3.90;1.75;;;;;15.50;94579.00;;;;8356152;28;20220;-67
2022/09/28 13:22:28;;;;;;;3.38;1.20;;;;;15.90;94575.00;;;;8352175;28;20225;-68
2022/09/28 13:26:42;;;;;;;4.10;1.50;;;;;16.00;94580.00;;;;8357844;28;20224;-68
2022/09/28 13:30:54;;;;;;;1.33;1.20;;;;;16.10;94578.00;;;;8364693;28;20280;-67
2022/09/28 13:35:05;;;;;;;2.83;1.58;;;;;16.00;94571.00;;;;8359455;28;20224;-68
2022/09/28 13:39:51;;;;;;;1.58;1.23;;;;;15.80;94579.00;;;;8348617;28;20704;-68
2022/09/28 13:44:31;;;;;;;2.22;1.23;;;;;15.70;94585.00;;;;8357163;28;20227;-68
2022/09/28 13:48:47;;;;;;;1.45;1.35;;;;;15.70;94592.00;;;;8364512;28;20236;-68
2022/09/28 13:52:57;;;;;;;1.90;1.48;;;;;15.80;94580.00;;;;8330398;28;20248;-67
2022/09/28 13:57:19;;;;;;;4.38;1.40;;;;;16.10;94586.00;;;;8348688;28;20224;-68
2022/09/28 14:01:36;;;;;;;1.52;1.42;;;;;16.30;94586.00;;;;8355600;28;20223;-67
2022/09/28 14:06:21;;;;;;;1.50;1.40;;;;;16.00;94592.00;;;;8355011;28;20243;-68
2022/09/28 14:10:50;;;;;;;1.67;1.30;;;;;16.00;94594.00;;;;8321061;28;20312;-67
2022/09/28 14:15:01;;;;;;;2.20;1.52;;;;;16.00;94595.00;;;;8337023;28;20657;-68
2022/09/28 14:19:08;;;;;;;1.98;1.75;;;;;15.90;94594.00;;;;8358636;28;20232;-68
2022/09/28 14:23:42;;;;;;;3.47;1.45;;;;;15.80;94592.00;;;;8322240;28;20680;-68
2022/09/28 14:28:03;;;;;;;3.33;1.55;;;;;15.80;94598.00;;;;8325512;28;20245;-67
2022/09/28 14:32:33;;;;;;;1.45;1.45;;;;;15.70;94603.00;;;;8333579;28;20220;-67
2022/09/28 14:41:30;;;;;;;1.70;1.42;;;;;15.40;94606.00;;;;8334208;28;20224;-67
2022/09/28 14:45:43;;;;;;;1.70;1.60;;;;;15.30;94605.00;;;;8334863;28;20221;-67
2022/09/28 14:50:17;;;;;;;1.15;1.15;;;;;15.20;94610.00;;;;8334465;28;20623;-67
2022/09/28 14:54:27;;;;;;;2.08;1.63;;;;;15.20;94611.00;;;;8334829;28;20225;-67
2022/09/28 14:58:37;;;;;;;4.93;1.50;;;;;15.30;94601.00;;;;8334268;28;20655;-67
2022/09/28 15:02:51;;;;;;;1.42;1.33;;;;;15.50;94606.00;;;;8333140;28;20229;-67
2022/09/28 15:07:09;;;;;;;1.27;1.20;;;;;15.40;94615.00;;;;8334392;28;20685;-66
2022/09/28 15:11:21;;;;;;;3.13;1.60;;;;;15.30;94603.00;;;;8332870;28;20213;-67
2022/09/28 15:15:29;;;;;;;2.75;1.60;;;;;15.20;94615.00;;;;8334025;28;20243;-67
2022/09/28 15:19:48;;;;;;;1.85;1.30;;;;;15.20;94617.00;;;;8334018;28;20228;-66
2022/09/28 15:24:00;;;;;;;1.80;1.30;;;;;15.20;94611.00;;;;8333342;28;20221;-67
2022/09/28 15:28:20;;;;;;;1.15;1.15;;;;;15.10;94609.00;;;;8333345;28;20233;-67
2022/09/28 15:32:31;;;;;;;2.67;1.42;;;;;14.80;94622.00;;;;8332646;28;20217;-67
2022/09/28 15:36:43;;;;;;;2.40;1.20;;;;;14.70;94613.00;;;;8332716;28;20225;-67
2022/09/28 15:40:54;;;;;;;3.45;1.33;;;;;14.60;94626.00;;;;8331616;28;20259;-67
2022/09/28 15:45:26;;;;;;;3.03;1.30;;;;;14.40;94626.00;;;;8332555;28;20304;-67
2022/09/28 15:49:41;;;;;;;2.55;1.40;;;;;14.30;94622.00;;;;8332234;28;20236;-67
2022/09/28 15:53:58;;;;;;;1.95;1.30;;;;;14.10;94623.00;;;;8332134;28;20214;-67
2022/09/28 15:58:16;;;;;;;2.08;1.40;;;;;13.90;94635.00;;;;8332103;28;20229;-67
2022/09/28 16:02:27;;;;;;;1.77;1.27;;;;;13.90;94644.00;;;;8330317;28;20697;-66
2022/09/28 16:06:43;;;;;;;4.38;1.30;;;;;13.80;94645.00;;;;8297622;28;20247;-67
2022/09/28 16:10:58;;;;;;;2.17;1.30;;;;;13.70;94629.00;;;;8297994;28;20229;-68
2022/09/28 16:15:06;;;;;;;3.65;1.67;;;;;13.60;94631.00;;;;8298842;28;20654;-68
2022/09/28 16:19:23;;;;;;;1.77;1.67;;;;;13.60;94637.00;;;;8298781;28;20647;-67
2022/09/28 16:23:35;;;;;;;1.58;1.58;;;;;13.50;94653.00;;;;8298532;28;20231;-67
2022/09/28 16:27:43;;;;;;;2.20;1.42;;;;;13.40;94649.00;;;;8297500;28;20272;-68
2022/09/28 16:31:54;;;;;;;1.60;1.50;;;;;13.20;94658.00;;;;8290672;28;20664;-71
2022/09/28 16:36:11;;;;;;;2.28;1.83;;;;;13.00;94658.00;;;;8297893;28;20225;-68
2022/09/28 16:40:14;;;;;;;2.60;1.83;;;;;12.90;94667.00;;;;8297769;28;20708;-68
2022/09/28 16:44:27;;;;;;;57.10;35.70;;;;;12.70;94663.00;;;;8296922;28;20216;-69
2022/09/28 16:48:44;;;;;;;4.65;4.22;;;;;12.60;94663.00;;;;8297503;28;20231;-68
2022/09/28 16:57:26;;;;;;;5.50;2.53;;;;;12.30;94658.00;;;;8296343;28;20233;-70
2022/09/28 17:01:41;;;;;;;4.90;3.00;;;;;12.10;94663.00;;;;8295390;28;20230;-70
2022/09/28 17:06:00;;;;;;;4.00;3.60;;;;;12.00;94666.00;;;;8324771;28;20228;-70
2022/09/28 17:10:17;;;;;;;5.43;2.33;;;;;11.90;94664.00;;;;8306509;28;20622;-71
2022/09/28 17:14:22;;;;;;;7.55;2.50;;;;;11.80;94664.00;;;;8329720;28;20241;-70
2022/09/28 17:18:31;;;;;;;2.88;1.90;;;;;11.70;94676.00;;;;8329793;28;20219;-71
2022/09/28 17:22:43;;;;;;;3.22;2.10;;;;;11.50;94676.00;;;;8305666;28;20226;-71
2022/09/28 17:26:53;;;;;;;4.03;2.00;;;;;11.40;94667.00;;;;8329202;28;20284;-70
2022/09/28 17:30:56;;;;;;;2.15;1.95;;;;;11.20;94674.00;;;;8327550;28;20221;-70
2022/09/28 17:35:08;;;;;;;2.63;2.20;;;;;11.00;94668.00;;;;8329855;28;20594;-68
2022/09/28 17:39:30;;;;;;;2.58;2.30;;;;;10.80;94679.00;;;;8328161;28;20619;-68
2022/09/28 17:43:33;;;;;;;4.30;2.35;;;;;10.60;94682.00;;;;8304533;28;20221;-68
2022/09/28 17:47:43;;;;;;;7.28;3.95;;;;;10.50;94684.00;;;;8328318;28;20272;-68
2022/09/28 17:51:53;;;;;;;3.65;2.80;;;;;10.40;94693.00;;;;8313339;28;20244;-67
2022/09/28 17:56:04;;;;;;;8.20;5.30;;;;;10.40;94696.00;;;;8311470;28;20221;-67
2022/09/28 18:00:09;;;;;;;6.68;4.97;;;;;10.40;94700.00;;;;8311498;28;20670;-67
2022/09/28 18:04:18;;;;;;;6.65;4.35;;;;;10.40;94706.00;;;;8315526;28;20547;-67
2022/09/28 18:08:48;;;;;;;10.27;5.85;;;;;10.40;94710.00;;;;8327022;28;20223;-67
2022/09/28 18:13:00;;;;;;;7.65;4.95;;;;;10.40;94692.00;;;;8328443;28;20225;-66
2022/09/28 18:17:09;;;;;;;9.85;6.50;;;;;10.40;94702.00;;;;8326628;28;20547;-67
2022/09/28 18:21:19;;;;;;;7.60;5.05;;;;;10.20;94698.00;;;;8326626;28;20213;-67
2022/09/28 18:25:29;;;;;;;6.25;4.00;;;;;10.10;94703.00;;;;8327449;28;20606;-67
2022/09/28 18:29:41;;;;;;;8.65;5.43;;;;;9.90;94707.00;;;;8327255;28;20681;-67
2022/09/28 18:33:44;;;;;;;10.63;6.35;;;;;9.80;94714.00;;;;8327126;28;20634;-67
2022/09/28 18:37:55;;;;;;;11.65;5.68;;;;;9.60;94713.00;;;;8325682;28;20245;-68
2022/09/28 18:41:58;;;;;;;11.52;6.45;;;;;9.50;94716.00;;;;8326795;28;20403;-67
2022/09/28 18:46:10;;;;;;;12.67;6.20;;;;;9.40;94718.00;;;;8327027;28;20717;-66
2022/09/28 18:50:14;;;;;;;8.30;5.77;;;;;9.30;94730.00;;;;8326406;28;20236;-67
2022/09/28 18:54:24;;;;;;;11.37;6.00;;;;;9.30;94736.00;;;;8327357;28;20229;-67
2022/09/28 18:58:35;;;;;;;10.23;6.30;;;;;9.30;94738.00;;;;8327135;28;20228;-67
2022/09/28 19:03:00;;;;;;;7.60;6.13;;;;;9.20;94742.00;;;;8325219;28;20225;-68
2022/09/28 19:07:11;;;;;;;8.45;5.60;;;;;9.10;94743.00;;;;8327443;28;20300;-67
2022/09/28 19:11:20;;;;;;;9.43;5.28;;;;;9.00;94738.00;;;;8327146;28;20221;-66
2022/09/28 19:15:33;;;;;;;8.90;6.03;;;;;9.00;94739.00;;;;8326617;28;20613;-67
2022/09/28 19:19:44;;;;;;;8.67;5.37;;;;;9.00;94747.00;;;;8333412;28;20229;-67
2022/09/28 19:23:54;;;;;;;17.47;5.93;;;;;9.00;94749.00;;;;8332905;28;20217;-68
2022/09/28 19:27:57;;;;;;;29.98;14.45;;;;;9.00;94743.00;;;;8332954;28;20252;-67
2022/09/28 19:32:06;;;;;;;29.73;13.03;;;;;8.90;94754.00;;;;8332996;28;20222;-67
2022/09/28 19:36:14;;;;;;;22.87;11.70;;;;;9.00;94756.00;;;;8333392;28;20234;-67
2022/09/28 19:40:23;;;;;;;23.70;11.77;;;;;9.00;94766.00;;;;8332228;28;20221;-68
2022/09/28 19:44:34;;;;;;;19.53;9.97;;;;;9.10;94773.00;;;;8331994;28;20217;-67
2022/09/28 19:48:43;;;;;;;22.40;10.77;;;;;9.10;94776.00;;;;8332290;28;20294;-66
2022/09/28 19:52:55;;;;;;;18.17;9.63;;;;;9.10;94775.00;;;;8331660;28;20217;-68
2022/09/28 19:57:06;;;;;;;22.85;11.10;;;;;9.10;94786.00;;;;8331968;28;20240;-67
2022/09/28 20:01:16;;;;;;;33.67;14.03;;;;;9.10;94783.00;;;;8331698;28;20221;-67
2022/09/28 20:05:19;;;;;;;19.63;11.13;;;;;9.00;94800.00;;;;8312333;28;20218;-67
2022/09/28 20:09:30;;;;;;;23.25;10.77;;;;;9.00;94806.00;;;;8298157;28;20276;-67
2022/09/28 20:13:35;;;;;;;25.30;11.68;;;;;9.10;94806.00;;;;8298302;28;20217;-67
2022/09/28 20:17:44;;;;;;;26.40;12.03;;;;;9.20;94811.00;;;;8298995;28;20663;-67
2022/09/28 20:21:57;;;;;;;20.67;10.60;;;;;9.30;94805.00;;;;8273755;28;20610;-68
2022/09/28 20:26:09;;;;;;;20.80;9.40;;;;;9.30;94805.00;;;;8298175;28;20225;-67
2022/09/28 20:30:13;;;;;;;25.70;10.83;;;;;9.30;94804.00;;;;8273608;28;20686;-67
2022/09/28 20:34:23;;;;;;;22.87;11.07;;;;;9.40;94809.00;;;;8298201;28;20232;-67
2022/09/28 20:38:36;;;;;;;16.97;9.33;;;;;9.30;94812.00;;;;8298279;28;20229;-67
2022/09/28 20:42:47;;;;;;;19.40;10.03;;;;;9.30;94815.00;;;;8297067;28;20237;-67
2022/09/28 20:46:56;;;;;;;19.33;9.50;;;;;9.30;94811.00;;;;8298352;28;20567;-67
2022/09/28 20:51:02;;;;;;;16.37;8.27;;;;;9.30;94822.00;;;;8273176;28;20702;-67
2022/09/28 20:55:11;;;;;;;17.50;7.80;;;;;9.20;94820.00;;;;8297131;28;20655;-68
2022/09/28 20:59:25;;;;;;;8.97;5.77;;;;;9.20;94831.00;;;;8297618;28;20575;-67
2022/09/28 21:03:51;;;;;;;12.23;7.03;;;;;9.20;94826.00;;;;8299066;28;20243;-67
2022/09/28 21:08:02;;;;;;;10.98;5.43;;;;;9.20;94836.00;;;;8297457;28;20214;-67